Terminal Aerodrome Forecast
Issued by NWS

Home | Current Version | Previous Version | Text Only | Print | Product List | Glossary On
Versions: 1 2 3 4 5 6 7 8 9 10 11 12 13 14 15 16 17
000
FTUS46 KMTR 050520
TAFSNS
TAF
KSNS 050520Z 0506/0606 27009KT P6SM OVC009
     FM051200 VRB03KT 2SM BR OVC003
     FM051800 29009KT P6SM FEW012
     FM060300 29007KT P6SM BKN009=

USA.gov is the U.S. government's official web portal to all federal, state and local government web resources and services.